createdAt,value
2017-04-13T00:00:56.135Z,11.72
2017-04-13T00:01:54.634Z,11.68
2017-04-13T00:02:53.168Z,11.62
2017-04-13T00:03:51.699Z,11.62
2017-04-13T00:04:50.209Z,11.65
2017-04-13T00:05:48.827Z,11.66
2017-04-13T00:06:47.339Z,11.75
2017-04-13T00:07:45.932Z,11.67
2017-04-13T00:08:44.571Z,11.58
2017-04-13T00:09:43.167Z,11.71
2017-04-13T00:10:41.764Z,11.69
2017-04-13T00:11:40.299Z,11.76
2017-04-13T00:12:38.803Z,11.73
2017-04-13T00:13:37.367Z,11.69
2017-04-13T00:14:35.980Z,11.61
2017-04-13T00:15:34.613Z,11.60
2017-04-13T00:16:33.271Z,11.65
2017-04-13T00:17:31.995Z,11.67
2017-04-13T00:18:30.540Z,11.69
2017-04-13T00:19:29.191Z,11.66
2017-04-13T00:20:27.831Z,11.66
2017-04-13T00:21:26.462Z,11.78
2017-04-13T00:22:25.035Z,11.78
2017-04-13T00:23:23.505Z,11.65
2017-04-13T00:24:22.056Z,11.65
2017-04-13T00:25:20.571Z,11.56
2017-04-13T00:26:19.123Z,11.61
2017-04-13T00:27:17.655Z,11.62
2017-04-13T00:28:16.160Z,11.68
2017-04-13T00:29:14.688Z,11.70
2017-04-13T00:30:13.208Z,11.59
2017-04-13T00:31:11.919Z,11.70
2017-04-13T00:32:10.523Z,11.68
2017-04-13T00:33:09.203Z,11.65
2017-04-13T00:34:07.731Z,11.57
2017-04-13T00:35:06.268Z,11.53
2017-04-13T00:36:04.764Z,11.56
2017-04-13T00:37:03.341Z,11.51
2017-04-13T00:38:01.907Z,11.49
2017-04-13T00:39:00.412Z,11.50
2017-04-13T00:39:58.915Z,11.61
2017-04-13T00:40:57.404Z,11.61
2017-04-13T00:41:56.003Z,11.61
2017-04-13T00:42:54.648Z,11.52
2017-04-13T00:43:53.245Z,11.53
2017-04-13T00:44:51.947Z,11.61
2017-04-13T00:45:50.571Z,11.48
2017-04-13T00:46:49.079Z,11.58
2017-04-13T00:47:47.659Z,11.53
2017-04-13T00:48:46.186Z,11.60
2017-04-13T00:49:44.691Z,11.64
2017-04-13T00:50:43.279Z,11.61
2017-04-13T00:51:41.823Z,11.55
2017-04-13T00:52:40.383Z,11.51
2017-04-13T00:53:38.940Z,11.44
2017-04-13T00:54:37.420Z,11.46
2017-04-13T00:55:36.031Z,11.49
2017-04-13T00:56:34.587Z,11.64
2017-04-13T00:57:33.193Z,11.50
2017-04-13T00:58:31.840Z,11.49
2017-04-13T00:59:30.399Z,11.54
2017-04-13T01:00:28.995Z,11.48
2017-04-13T01:01:27.584Z,11.51
2017-04-13T01:02:26.178Z,11.39
2017-04-13T01:03:24.731Z,11.54
2017-04-13T01:04:23.238Z,11.48
2017-04-13T01:05:21.787Z,11.40
2017-04-13T01:06:20.308Z,11.39
2017-04-13T01:07:18.823Z,11.36
2017-04-13T01:08:17.395Z,11.40
2017-04-13T01:09:15.883Z,11.39
2017-04-13T01:10:14.423Z,11.38
2017-04-13T01:11:12.955Z,11.34
2017-04-13T01:12:11.470Z,11.34
2017-04-13T01:13:09.972Z,11.40
2017-04-13T01:14:08.525Z,11.39
2017-04-13T01:15:07.038Z,11.31
2017-04-13T01:16:05.741Z,11.30
2017-04-13T01:17:04.332Z,11.28
2017-04-13T01:18:02.887Z,11.40
2017-04-13T01:19:04.745Z,11.32
2017-04-13T01:20:03.541Z,11.37
2017-04-13T01:21:02.063Z,11.28
2017-04-13T01:22:00.579Z,11.35
2017-04-13T01:22:59.218Z,11.34
2017-04-13T01:23:57.780Z,11.27
2017-04-13T01:24:56.379Z,11.22
2017-04-13T01:25:54.990Z,11.24
2017-04-13T01:26:53.491Z,11.29
2017-04-13T01:27:52.006Z,11.15
2017-04-13T01:28:50.620Z,11.22
2017-04-13T01:29:49.239Z,11.14
2017-04-13T01:30:47.774Z,11.21
2017-04-13T01:31:46.423Z,11.14
2017-04-13T01:32:44.923Z,11.23
2017-04-13T01:33:43.408Z,11.21
2017-04-13T01:34:42.035Z,11.28
2017-04-13T01:35:40.643Z,11.31
2017-04-13T01:36:39.250Z,11.32
2017-04-13T01:37:37.893Z,11.22
2017-04-13T01:38:36.404Z,11.23
2017-04-13T01:39:34.983Z,11.28
2017-04-13T01:40:33.461Z,11.29
2017-04-13T01:41:31.955Z,11.37
2017-04-13T01:42:30.484Z,11.28
2017-04-13T01:43:28.978Z,11.34
2017-04-13T01:44:27.502Z,11.26
2017-04-13T01:45:26.078Z,11.25
2017-04-13T01:46:24.676Z,11.26
2017-04-13T01:47:23.186Z,11.22
2017-04-13T01:48:21.769Z,11.31
2017-04-13T01:49:20.382Z,11.40
2017-04-13T01:50:18.919Z,11.41
2017-04-13T01:51:17.415Z,11.26
2017-04-13T01:52:16.034Z,11.36
2017-04-13T01:53:14.922Z,11.35
2017-04-13T01:54:13.476Z,11.49
2017-04-13T01:55:12.016Z,11.39
2017-04-13T01:56:10.631Z,11.46
2017-04-13T01:57:09.209Z,11.43
2017-04-13T01:58:07.796Z,11.41
2017-04-13T01:59:06.290Z,11.32
2017-04-13T02:00:04.882Z,11.45
2017-04-13T02:01:03.434Z,11.43
2017-04-13T02:02:02.056Z,11.57
2017-04-13T02:03:00.682Z,11.50
2017-04-13T02:03:59.348Z,11.54
2017-04-13T02:04:57.968Z,11.51
2017-04-13T02:05:56.574Z,11.49
2017-04-13T02:06:55.107Z,11.47
2017-04-13T02:07:53.646Z,11.45
2017-04-13T02:08:52.159Z,11.50
2017-04-13T02:09:50.679Z,11.41
2017-04-13T02:10:49.251Z,11.46
2017-04-13T02:11:47.784Z,11.35
2017-04-13T02:12:46.296Z,11.37
2017-04-13T02:13:44.811Z,11.26
2017-04-13T02:14:43.435Z,11.36
2017-04-13T02:15:41.959Z,11.44
2017-04-13T02:16:40.478Z,11.33
2017-04-13T02:17:39.032Z,11.42
2017-04-13T02:18:37.545Z,11.45
2017-04-13T02:19:36.083Z,11.34
2017-04-13T02:20:34.655Z,11.38
2017-04-13T02:21:33.206Z,11.41
2017-04-13T02:22:31.695Z,11.45
2017-04-13T02:23:30.239Z,11.37
2017-04-13T02:24:28.880Z,11.35
2017-04-13T02:25:27.530Z,11.37
2017-04-13T02:26:26.166Z,11.37
2017-04-13T02:27:24.779Z,11.43
2017-04-13T02:28:23.330Z,11.51
2017-04-13T02:29:22.103Z,11.41
2017-04-13T02:30:20.731Z,11.39
2017-04-13T02:31:19.231Z,11.40
2017-04-13T02:32:17.803Z,11.45
2017-04-13T02:33:16.299Z,11.46
2017-04-13T02:34:14.775Z,11.50
2017-04-13T02:35:13.284Z,11.45
2017-04-13T02:36:11.815Z,11.42
2017-04-13T02:37:10.338Z,11.32
2017-04-13T02:38:08.914Z,11.30
2017-04-13T02:39:07.487Z,11.34
2017-04-13T02:40:06.046Z,11.36
2017-04-13T02:41:04.607Z,11.29
2017-04-13T02:42:03.171Z,11.31
2017-04-13T02:43:01.683Z,11.26
2017-04-13T02:44:00.187Z,11.29
2017-04-13T02:44:58.691Z,11.24
2017-04-13T02:45:57.249Z,11.18
2017-04-13T02:46:55.876Z,11.11
2017-04-13T02:47:54.491Z,11.16
2017-04-13T02:48:53.088Z,11.20
2017-04-13T02:49:52.512Z,11.19
2017-04-13T02:50:51.015Z,11.17
2017-04-13T02:51:49.515Z,11.17
2017-04-13T02:52:48.043Z,11.20
2017-04-13T02:53:46.567Z,11.07
2017-04-13T02:54:45.081Z,11.17
2017-04-13T02:55:43.632Z,11.20
2017-04-13T02:56:42.232Z,11.14
2017-04-13T02:57:40.831Z,11.14
2017-04-13T02:58:39.360Z,11.09
2017-04-13T02:59:37.899Z,11.24
2017-04-13T03:00:36.581Z,11.18
2017-04-13T03:01:35.255Z,11.20
2017-04-13T03:02:33.770Z,11.17
2017-04-13T03:03:32.284Z,11.17
2017-04-13T03:04:30.783Z,11.16
2017-04-13T03:05:29.309Z,11.23
2017-04-13T03:06:27.812Z,11.14
2017-04-13T03:07:26.427Z,11.16
2017-04-13T03:08:25.007Z,11.17
2017-04-13T03:09:23.651Z,11.22
2017-04-13T03:10:22.391Z,11.17
2017-04-13T03:11:20.911Z,11.14
2017-04-13T03:12:19.519Z,11.17
2017-04-13T03:13:18.212Z,11.00
2017-04-13T03:14:16.887Z,11.13
2017-04-13T03:15:15.390Z,11.08
2017-04-13T03:16:13.959Z,11.14
2017-04-13T03:17:12.497Z,11.09
2017-04-13T03:18:11.009Z,11.13
2017-04-13T03:19:09.549Z,11.10
2017-04-13T03:20:08.106Z,11.12
2017-04-13T03:21:06.688Z,11.09
2017-04-13T03:22:05.204Z,11.07
2017-04-13T03:23:03.735Z,11.11
2017-04-13T03:24:02.330Z,11.11
2017-04-13T03:25:00.976Z,11.17
2017-04-13T03:25:59.551Z,11.15
2017-04-13T03:26:58.068Z,11.23
2017-04-13T03:27:56.632Z,11.23
2017-04-13T03:28:55.416Z,11.21
2017-04-13T03:29:54.051Z,11.15
2017-04-13T03:30:52.667Z,11.26
2017-04-13T03:31:51.375Z,11.27
2017-04-13T03:32:49.921Z,11.23
2017-04-13T03:33:48.451Z,11.25
2017-04-13T03:34:46.947Z,11.20
2017-04-13T03:35:45.603Z,11.14
2017-04-13T03:36:44.134Z,11.09
2017-04-13T03:37:42.648Z,11.05
2017-04-13T03:38:41.160Z,11.00
2017-04-13T03:39:39.680Z,11.10
2017-04-13T03:40:38.167Z,11.17
2017-04-13T03:41:36.695Z,11.24
2017-04-13T03:42:35.179Z,11.16
2017-04-13T03:43:33.723Z,11.06
2017-04-13T03:44:32.303Z,11.06
2017-04-13T03:45:30.853Z,10.94
2017-04-13T03:46:29.418Z,11.00
2017-04-13T03:47:27.915Z,10.96
2017-04-13T03:48:26.496Z,11.09
2017-04-13T03:49:24.982Z,11.03
2017-04-13T03:50:23.487Z,11.12
2017-04-13T03:51:22.000Z,11.13
2017-04-13T03:52:20.506Z,11.10
2017-04-13T03:53:18.990Z,11.06
2017-04-13T03:54:17.554Z,11.11
2017-04-13T03:55:16.110Z,11.03
2017-04-13T03:56:14.643Z,11.09
2017-04-13T03:57:13.141Z,11.02
2017-04-13T03:58:11.696Z,10.99
2017-04-13T03:59:10.288Z,11.04
2017-04-13T04:00:08.819Z,11.02
2017-04-13T04:01:07.499Z,11.02
2017-04-13T04:02:06.035Z,11.04
2017-04-13T04:03:04.535Z,11.08
2017-04-13T04:04:03.059Z,11.20
2017-04-13T04:05:01.570Z,11.19
2017-04-13T04:06:00.130Z,11.13
2017-04-13T04:06:58.658Z,11.14
2017-04-13T04:07:57.208Z,11.17
2017-04-13T04:08:55.734Z,11.21
2017-04-13T04:09:54.232Z,11.15
2017-04-13T04:10:52.752Z,11.15
2017-04-13T04:11:51.258Z,11.19
2017-04-13T04:12:49.823Z,11.16
2017-04-13T04:13:48.371Z,11.15
2017-04-13T04:14:46.951Z,11.05
2017-04-13T04:15:45.563Z,11.01
2017-04-13T04:16:45.359Z,11.07
2017-04-13T04:17:44.279Z,11.01
2017-04-13T04:18:42.810Z,10.97
2017-04-13T04:19:41.375Z,11.05
2017-04-13T04:20:40.035Z,11.02
2017-04-13T04:21:38.568Z,11.03
2017-04-13T04:22:37.192Z,11.03
2017-04-13T04:23:35.815Z,11.07
2017-04-13T04:24:34.404Z,11.08
2017-04-13T04:25:33.090Z,11.09
2017-04-13T04:26:31.599Z,11.09
2017-04-13T04:27:30.147Z,11.12
2017-04-13T04:28:28.659Z,11.08
2017-04-13T04:29:27.164Z,11.04
2017-04-13T04:30:25.691Z,11.03
2017-04-13T04:31:24.207Z,11.01
2017-04-13T04:32:22.694Z,11.00
2017-04-13T04:33:21.211Z,11.00
2017-04-13T04:34:19.812Z,10.93
2017-04-13T04:35:18.392Z,11.03
2017-04-13T04:36:16.966Z,11.05
2017-04-13T04:37:15.494Z,11.06
2017-04-13T04:38:14.000Z,11.00
2017-04-13T04:39:12.504Z,11.06
2017-04-13T04:40:11.047Z,11.12
2017-04-13T04:41:09.563Z,11.00
2017-04-13T04:42:08.090Z,10.94
2017-04-13T04:43:06.817Z,10.95
2017-04-13T04:44:05.352Z,10.96
2017-04-13T04:45:03.955Z,11.04
2017-04-13T04:46:02.474Z,11.07
2017-04-13T04:47:00.991Z,11.08
2017-04-13T04:47:59.632Z,11.06
2017-04-13T04:48:58.187Z,10.94
2017-04-13T04:49:56.707Z,10.93
2017-04-13T04:50:55.280Z,10.96
2017-04-13T04:51:53.784Z,10.97
2017-04-13T04:52:52.359Z,10.95
2017-04-13T04:53:50.915Z,11.03
2017-04-13T04:54:49.426Z,10.96
2017-04-13T04:55:48.087Z,11.00
2017-04-13T04:56:46.592Z,10.94
2017-04-13T04:57:45.100Z,10.95
2017-04-13T04:58:43.621Z,10.98
2017-04-13T04:59:42.271Z,10.93
2017-04-13T05:00:40.907Z,10.94
2017-04-13T05:01:39.403Z,10.98
2017-04-13T05:02:37.902Z,10.97
2017-04-13T05:03:36.420Z,10.90
2017-04-13T05:04:35.007Z,10.88
2017-04-13T05:05:33.533Z,10.98
2017-04-13T05:06:32.083Z,10.92
2017-04-13T05:07:30.546Z,10.98
2017-04-13T05:08:29.479Z,11.05
2017-04-13T05:09:28.069Z,11.01
2017-04-13T05:10:26.635Z,11.02
2017-04-13T05:11:25.127Z,10.96
2017-04-13T05:12:24.466Z,10.95
2017-04-13T05:13:22.953Z,10.85
2017-04-13T05:14:21.468Z,10.91
2017-04-13T05:15:20.089Z,10.84
2017-04-13T05:16:18.632Z,10.77
2017-04-13T05:17:17.400Z,10.83
2017-04-13T05:18:16.022Z,10.84
2017-04-13T05:19:14.595Z,10.84
2017-04-13T05:20:13.203Z,10.82
2017-04-13T05:21:12.179Z,10.85
2017-04-13T05:22:10.674Z,10.94
2017-04-13T05:23:09.424Z,10.97
2017-04-13T05:24:08.298Z,11.00
2017-04-13T05:25:07.279Z,11.00
2017-04-13T05:26:05.800Z,10.98
2017-04-13T05:27:04.441Z,10.93
2017-04-13T05:28:03.392Z,10.94
2017-04-13T05:29:01.943Z,11.01
2017-04-13T05:30:00.456Z,11.05
2017-04-13T05:30:59.232Z,11.02
2017-04-13T05:31:58.382Z,11.02
2017-04-13T05:32:56.984Z,11.02
2017-04-13T05:33:55.694Z,10.96
2017-04-13T05:34:54.243Z,10.95
2017-04-13T05:35:52.782Z,10.84
2017-04-13T05:36:51.349Z,10.90
2017-04-13T05:37:49.851Z,10.82
2017-04-13T05:38:48.510Z,10.93
2017-04-13T05:39:47.061Z,10.99
2017-04-13T05:40:45.625Z,10.97
2017-04-13T05:41:44.151Z,10.89
2017-04-13T05:42:42.652Z,10.90
2017-04-13T05:43:41.179Z,10.94
2017-04-13T05:44:39.697Z,10.97
2017-04-13T05:45:38.199Z,10.89
2017-04-13T05:46:37.275Z,10.96
2017-04-13T05:47:35.842Z,11.01
2017-04-13T05:48:34.403Z,10.94
2017-04-13T05:49:34.966Z,10.87
2017-04-13T05:50:33.592Z,10.91
2017-04-13T05:51:32.640Z,10.96
2017-04-13T05:52:34.603Z,10.95
2017-04-13T05:53:35.463Z,11.03
2017-04-13T05:54:34.003Z,10.96
2017-04-13T05:55:32.529Z,10.92
2017-04-13T05:56:31.027Z,10.95
2017-04-13T05:57:29.558Z,10.92
2017-04-13T05:58:28.076Z,10.94
2017-04-13T05:59:26.623Z,10.86
2017-04-13T06:00:25.202Z,10.84
2017-04-13T06:01:23.707Z,10.90
2017-04-13T06:02:22.273Z,10.86
2017-04-13T06:03:20.799Z,10.86
2017-04-13T06:04:19.351Z,10.98
2017-04-13T06:05:17.894Z,10.88
2017-04-13T06:06:16.462Z,10.81
2017-04-13T06:07:15.038Z,11.05
2017-04-13T06:08:13.686Z,11.02
2017-04-13T06:09:12.382Z,11.00
2017-04-13T06:10:11.026Z,11.07
2017-04-13T06:11:09.637Z,11.03
2017-04-13T06:12:08.215Z,11.08
2017-04-13T06:13:06.835Z,11.01
2017-04-13T06:14:05.358Z,10.86
2017-04-13T06:15:03.952Z,10.92
2017-04-13T06:16:02.678Z,10.96
2017-04-13T06:17:01.199Z,10.93
2017-04-13T06:17:59.708Z,10.93
2017-04-13T06:18:58.280Z,10.89
2017-04-13T06:19:56.783Z,10.88
2017-04-13T06:20:55.426Z,10.83
2017-04-13T06:21:53.951Z,10.82
2017-04-13T06:22:52.452Z,10.88
2017-04-13T06:23:50.979Z,10.92
2017-04-13T06:24:49.509Z,10.86
2017-04-13T06:25:48.099Z,10.95
2017-04-13T06:26:46.657Z,10.88
2017-04-13T06:27:45.164Z,10.84
2017-04-13T06:28:43.703Z,10.94
2017-04-13T06:29:42.395Z,10.96
2017-04-13T06:30:40.920Z,10.93
2017-04-13T06:31:39.463Z,10.95
2017-04-13T06:32:37.983Z,11.00
2017-04-13T06:33:36.520Z,10.99
2017-04-13T06:34:35.026Z,10.90
2017-04-13T06:35:33.648Z,10.97
2017-04-13T06:36:32.450Z,10.95
2017-04-13T06:37:31.058Z,11.06
2017-04-13T06:38:29.591Z,11.11
2017-04-13T06:39:28.178Z,11.11
2017-04-13T06:40:26.702Z,11.13
2017-04-13T06:41:25.271Z,11.07
2017-04-13T06:42:23.813Z,11.03
2017-04-13T06:43:22.390Z,11.00
2017-04-13T06:44:20.900Z,11.03
2017-04-13T06:45:19.415Z,10.96
2017-04-13T06:46:18.029Z,10.98
2017-04-13T06:47:16.604Z,11.04
2017-04-13T06:48:15.135Z,11.06
2017-04-13T06:49:13.683Z,11.16
2017-04-13T06:50:12.427Z,11.12
2017-04-13T06:51:11.007Z,11.09
2017-04-13T06:52:09.665Z,11.11
2017-04-13T06:53:08.279Z,11.11
2017-04-13T06:54:06.870Z,11.16
2017-04-13T06:55:05.518Z,11.19
2017-04-13T06:56:04.047Z,11.15
2017-04-13T06:57:02.577Z,11.13
2017-04-13T06:58:01.150Z,11.02
2017-04-13T06:58:59.679Z,10.97
2017-04-13T06:59:58.241Z,11.02
2017-04-13T07:00:56.851Z,11.05
2017-04-13T07:01:55.415Z,11.06
2017-04-13T07:02:55.888Z,11.03
2017-04-13T07:03:54.612Z,10.94
2017-04-13T07:04:53.498Z,10.98
2017-04-13T07:05:52.442Z,11.02
2017-04-13T07:06:50.926Z,11.07
2017-04-13T07:07:49.551Z,11.06
2017-04-13T07:08:48.151Z,11.07
2017-04-13T07:09:46.663Z,11.22
2017-04-13T07:10:45.175Z,11.16
2017-04-13T07:11:43.713Z,11.26
2017-04-13T07:12:42.297Z,11.12
2017-04-13T07:13:40.901Z,11.10
2017-04-13T07:14:39.382Z,11.07
2017-04-13T07:15:37.899Z,11.21
2017-04-13T07:16:36.507Z,11.13
2017-04-13T07:17:34.983Z,11.19
2017-04-13T07:18:33.563Z,11.20
2017-04-13T07:19:32.190Z,11.20
2017-04-13T07:20:31.043Z,11.26
2017-04-13T07:21:29.771Z,11.29
2017-04-13T07:22:28.274Z,11.37
2017-04-13T07:23:26.859Z,11.38
2017-04-13T07:24:25.416Z,11.36
2017-04-13T07:25:23.976Z,11.31
2017-04-13T07:26:22.487Z,11.31
2017-04-13T07:27:21.073Z,11.45
2017-04-13T07:28:19.630Z,11.31
2017-04-13T07:29:18.242Z,11.41
2017-04-13T07:30:16.894Z,11.41
2017-04-13T07:31:15.414Z,11.37
2017-04-13T07:32:14.016Z,11.43
2017-04-13T07:33:12.621Z,11.48
2017-04-13T07:34:11.235Z,11.41
2017-04-13T07:35:09.743Z,11.39
2017-04-13T07:36:08.294Z,11.42
2017-04-13T07:37:06.867Z,11.40
2017-04-13T07:38:05.403Z,11.48
2017-04-13T07:39:04.333Z,11.48
2017-04-13T07:40:02.835Z,11.53
2017-04-13T07:41:01.390Z,11.56
2017-04-13T07:41:59.912Z,11.54
2017-04-13T07:42:58.467Z,11.64
2017-04-13T07:43:57.039Z,11.67
2017-04-13T07:44:55.627Z,11.66
2017-04-13T07:45:54.191Z,11.63
2017-04-13T07:46:52.699Z,11.60
2017-04-13T07:47:51.211Z,11.61
2017-04-13T07:48:49.723Z,11.69
2017-04-13T07:49:48.211Z,11.61
2017-04-13T07:50:46.708Z,11.60
2017-04-13T07:51:45.220Z,11.73
2017-04-13T07:52:43.846Z,11.71
2017-04-13T07:53:42.423Z,11.69
2017-04-13T07:54:40.943Z,11.61
2017-04-13T07:55:39.587Z,11.54
2017-04-13T07:56:38.214Z,11.59
2017-04-13T07:57:37.615Z,11.58
2017-04-13T07:58:36.151Z,11.62
2017-04-13T07:59:34.665Z,11.55
2017-04-13T08:00:33.176Z,11.48
2017-04-13T08:01:31.729Z,11.48
2017-04-13T08:02:30.254Z,11.56
2017-04-13T08:03:28.883Z,11.58
2017-04-13T08:04:27.419Z,11.51
2017-04-13T08:05:25.964Z,11.57
2017-04-13T08:06:24.584Z,11.53
2017-04-13T08:07:23.132Z,11.59
2017-04-13T08:08:21.743Z,11.60
2017-04-13T08:09:20.314Z,11.67
2017-04-13T08:10:18.842Z,11.67
2017-04-13T08:11:17.376Z,11.64
2017-04-13T08:12:15.903Z,11.64
2017-04-13T08:13:14.415Z,11.76
2017-04-13T08:14:12.931Z,11.74
2017-04-13T08:15:11.455Z,11.69
2017-04-13T08:16:10.365Z,11.69
2017-04-13T08:17:08.984Z,11.70
2017-04-13T08:18:07.482Z,11.81
2017-04-13T08:19:06.087Z,11.83
2017-04-13T08:20:04.624Z,11.83
2017-04-13T08:21:03.185Z,11.79
2017-04-13T08:22:01.806Z,11.71
2017-04-13T08:23:00.366Z,11.78
2017-04-13T08:23:58.907Z,11.85
2017-04-13T08:24:57.480Z,11.92
2017-04-13T08:25:55.994Z,11.92
2017-04-13T08:26:54.568Z,11.89
2017-04-13T08:27:53.099Z,11.89
2017-04-13T08:28:51.592Z,11.94
2017-04-13T08:29:50.203Z,11.91
2017-04-13T08:30:48.836Z,12.01
2017-04-13T08:31:47.351Z,12.08
2017-04-13T08:32:45.851Z,12.15
2017-04-13T08:33:44.373Z,12.22
2017-04-13T08:34:42.888Z,12.25
2017-04-13T08:35:41.415Z,12.06
2017-04-13T08:36:39.974Z,12.07
2017-04-13T08:37:38.559Z,12.09
2017-04-13T08:38:37.159Z,12.18
2017-04-13T08:39:35.779Z,12.13
2017-04-13T08:40:34.447Z,12.09
2017-04-13T08:41:33.097Z,12.07
2017-04-13T08:42:31.580Z,12.15
2017-04-13T08:43:30.098Z,12.19
2017-04-13T08:44:28.633Z,12.31
2017-04-13T08:45:27.155Z,12.39
2017-04-13T08:46:25.627Z,12.32
2017-04-13T08:47:24.170Z,12.27
2017-04-13T08:48:22.703Z,12.28
2017-04-13T08:49:21.191Z,12.28
2017-04-13T08:50:19.784Z,12.34
2017-04-13T08:51:18.318Z,12.37
2017-04-13T08:52:16.839Z,12.35
2017-04-13T08:53:15.342Z,12.42
2017-04-13T08:54:13.865Z,12.42
2017-04-13T08:55:12.370Z,12.46
2017-04-13T08:56:10.908Z,12.53
2017-04-13T08:57:09.552Z,12.67
2017-04-13T08:58:08.064Z,12.68
2017-04-13T08:59:06.621Z,12.65
2017-04-13T09:00:05.130Z,12.61
2017-04-13T09:01:03.648Z,12.55
2017-04-13T09:02:02.226Z,12.50
2017-04-13T09:03:00.728Z,12.60
2017-04-13T09:03:59.293Z,12.55
2017-04-13T09:04:58.200Z,12.55
2017-04-13T09:05:57.219Z,12.52
2017-04-13T09:06:55.785Z,12.50
2017-04-13T09:07:54.380Z,12.45
2017-04-13T09:08:52.939Z,12.47
2017-04-13T09:09:51.475Z,12.50
2017-04-13T09:10:49.998Z,12.44
2017-04-13T09:11:48.540Z,12.39
2017-04-13T09:12:47.020Z,12.42
2017-04-13T09:13:45.584Z,12.37
2017-04-13T09:14:44.115Z,12.34
2017-04-13T09:15:42.604Z,12.27
2017-04-13T09:16:41.114Z,12.38
2017-04-13T09:17:39.607Z,12.34
2017-04-13T09:18:38.127Z,12.27
2017-04-13T09:19:36.750Z,12.30
2017-04-13T09:20:35.261Z,12.27
2017-04-13T09:21:33.820Z,12.26
2017-04-13T09:22:32.351Z,12.39
2017-04-13T09:23:30.855Z,12.40
2017-04-13T09:24:29.470Z,12.47
2017-04-13T09:25:27.975Z,12.47
2017-04-13T09:26:26.558Z,12.42
2017-04-13T09:27:25.198Z,12.36
2017-04-13T09:28:23.722Z,12.49
2017-04-13T09:29:22.260Z,12.44
2017-04-13T09:30:20.831Z,12.47
2017-04-13T09:31:19.381Z,12.48
2017-04-13T09:32:17.935Z,12.43
2017-04-13T09:33:16.494Z,12.40
2017-04-13T09:34:15.167Z,12.36
2017-04-13T09:35:13.719Z,12.50
2017-04-13T09:36:12.392Z,12.60
2017-04-13T09:37:10.971Z,12.66
2017-04-13T09:38:09.458Z,12.61
2017-04-13T09:39:08.002Z,12.62
2017-04-13T09:40:06.486Z,12.61
2017-04-13T09:41:05.138Z,12.59
2017-04-13T09:42:03.727Z,12.55
2017-04-13T09:43:02.248Z,12.48
2017-04-13T09:44:00.787Z,12.59
2017-04-13T09:44:59.307Z,12.49
2017-04-13T09:45:57.897Z,12.65
2017-04-13T09:46:56.427Z,12.71
2017-04-13T09:47:54.956Z,12.72
2017-04-13T09:48:53.479Z,12.53
2017-04-13T09:49:52.008Z,12.67
2017-04-13T09:50:50.548Z,12.58
2017-04-13T09:51:49.121Z,12.67
2017-04-13T09:52:47.897Z,12.79
2017-04-13T09:53:46.410Z,12.82
2017-04-13T09:54:44.968Z,12.87
2017-04-13T09:55:43.514Z,12.83
2017-04-13T09:56:42.104Z,12.83
2017-04-13T09:57:40.635Z,12.87
2017-04-13T09:58:39.275Z,12.93
2017-04-13T09:59:37.856Z,12.88
2017-04-13T10:00:36.556Z,12.86
2017-04-13T10:01:35.079Z,12.89
2017-04-13T10:02:33.591Z,12.80
2017-04-13T10:03:32.121Z,12.74
2017-04-13T10:04:30.637Z,12.63
2017-04-13T10:05:29.260Z,12.66
2017-04-13T10:06:27.903Z,12.68
2017-04-13T10:07:26.508Z,12.69
2017-04-13T10:08:25.130Z,12.69
2017-04-13T10:09:23.667Z,12.67
2017-04-13T10:10:22.239Z,12.72
2017-04-13T10:11:20.819Z,12.72
2017-04-13T10:12:19.347Z,12.82
2017-04-13T10:13:17.874Z,12.79
2017-04-13T10:14:16.431Z,12.83
2017-04-13T10:15:15.028Z,12.82
2017-04-13T10:16:13.559Z,12.83
2017-04-13T10:17:12.099Z,12.86
2017-04-13T10:18:10.800Z,12.85
2017-04-13T10:19:09.318Z,12.89
2017-04-13T10:20:07.868Z,12.96
2017-04-13T10:21:06.410Z,13.06
2017-04-13T10:22:04.970Z,12.95
2017-04-13T10:23:03.489Z,12.84
2017-04-13T10:24:02.063Z,12.74
2017-04-13T10:25:00.725Z,12.71
2017-04-13T10:25:59.239Z,12.77
2017-04-13T10:26:57.767Z,12.64
2017-04-13T10:27:56.278Z,12.78
2017-04-13T10:28:54.834Z,12.81
2017-04-13T10:29:53.338Z,12.80
2017-04-13T10:30:51.846Z,12.94
2017-04-13T10:31:50.387Z,12.98
2017-04-13T10:32:48.944Z,13.04
2017-04-13T10:33:47.476Z,13.11
2017-04-13T10:34:45.977Z,13.21
2017-04-13T10:35:44.601Z,13.12
2017-04-13T10:36:43.185Z,13.20
2017-04-13T10:37:41.708Z,13.20
2017-04-13T10:38:40.198Z,13.19
2017-04-13T10:39:38.723Z,13.15
2017-04-13T10:40:37.216Z,13.26
2017-04-13T10:41:35.786Z,13.41
2017-04-13T10:42:34.450Z,13.45
2017-04-13T10:43:33.079Z,13.64
2017-04-13T10:44:31.713Z,13.62
2017-04-13T10:45:30.240Z,13.42
2017-04-13T10:46:28.987Z,13.26
2017-04-13T10:47:27.618Z,13.20
2017-04-13T10:48:26.173Z,13.17
2017-04-13T10:49:24.735Z,13.12
2017-04-13T10:50:23.334Z,13.19
2017-04-13T10:51:21.894Z,13.09
2017-04-13T10:52:20.418Z,13.07
2017-04-13T10:53:18.967Z,13.18
2017-04-13T10:54:17.521Z,13.04
2017-04-13T10:55:16.028Z,13.09
2017-04-13T10:56:14.618Z,13.06
2017-04-13T10:57:13.125Z,13.12
2017-04-13T10:58:11.663Z,13.10
2017-04-13T10:59:10.182Z,12.96
2017-04-13T11:00:08.751Z,12.93
2017-04-13T11:01:07.291Z,12.92
2017-04-13T11:02:05.846Z,13.01
2017-04-13T11:03:04.352Z,13.06
2017-04-13T11:04:03.309Z,13.09
2017-04-13T11:05:02.280Z,13.11
2017-04-13T11:06:00.828Z,13.23
2017-04-13T11:06:59.444Z,13.24
2017-04-13T11:07:57.987Z,13.20
2017-04-13T11:08:56.667Z,13.29
2017-04-13T11:09:55.275Z,13.27
2017-04-13T11:10:53.936Z,13.39
2017-04-13T11:11:52.441Z,13.34
2017-04-13T11:12:50.973Z,13.29
2017-04-13T11:13:49.598Z,13.33
2017-04-13T11:14:48.112Z,13.37
2017-04-13T11:15:46.642Z,13.49
2017-04-13T11:16:45.203Z,13.52
2017-04-13T11:17:43.727Z,13.60
2017-04-13T11:18:42.324Z,13.46
2017-04-13T11:19:40.927Z,13.55
2017-04-13T11:20:39.990Z,13.37
2017-04-13T11:21:38.797Z,13.39
2017-04-13T11:22:37.403Z,13.43
2017-04-13T11:23:35.923Z,13.42
2017-04-13T11:24:34.434Z,13.36
2017-04-13T11:25:33.006Z,13.28
2017-04-13T11:26:31.542Z,13.26
2017-04-13T11:27:30.170Z,13.38
2017-04-13T11:28:28.729Z,13.33
2017-04-13T11:29:27.278Z,13.50
2017-04-13T11:30:25.771Z,13.41
2017-04-13T11:31:24.295Z,13.48
2017-04-13T11:32:22.867Z,13.58
2017-04-13T11:33:21.574Z,13.42
2017-04-13T11:34:20.140Z,13.23
2017-04-13T11:35:18.841Z,13.21
2017-04-13T11:36:17.421Z,13.22
2017-04-13T11:37:15.978Z,13.30
2017-04-13T11:38:14.512Z,13.34
2017-04-13T11:39:13.028Z,13.41
2017-04-13T11:40:11.558Z,13.30
2017-04-13T11:41:10.163Z,13.18
2017-04-13T11:42:08.755Z,13.12
2017-04-13T11:43:07.296Z,13.18
2017-04-13T11:44:05.760Z,13.12
2017-04-13T11:45:04.367Z,13.16
2017-04-13T11:46:03.367Z,13.13
2017-04-13T11:47:01.996Z,13.13
2017-04-13T11:48:00.539Z,13.03
2017-04-13T11:48:59.076Z,12.93
2017-04-13T11:49:57.642Z,12.97
2017-04-13T11:50:56.207Z,13.05
2017-04-13T11:51:54.732Z,12.98
2017-04-13T11:52:53.256Z,12.93
2017-04-13T11:53:51.781Z,12.96
2017-04-13T11:54:50.376Z,13.04
2017-04-13T11:55:48.920Z,13.07
2017-04-13T11:56:47.476Z,13.19
2017-04-13T11:57:45.979Z,13.23
2017-04-13T11:58:44.470Z,13.23
2017-04-13T11:59:42.976Z,13.27
2017-04-13T12:00:41.547Z,13.40
2017-04-13T12:01:40.113Z,13.54
2017-04-13T12:02:38.637Z,13.63
2017-04-13T12:03:37.198Z,13.76
2017-04-13T12:04:35.867Z,13.72
2017-04-13T12:05:34.430Z,13.71
2017-04-13T12:06:32.976Z,13.71
2017-04-13T12:07:31.648Z,13.72
2017-04-13T12:08:30.236Z,13.69
2017-04-13T12:09:28.898Z,13.60
2017-04-13T12:10:27.495Z,13.65
2017-04-13T12:11:26.052Z,13.61
2017-04-13T12:12:24.568Z,13.58
2017-04-13T12:13:23.090Z,13.53
2017-04-13T12:14:21.659Z,13.54
2017-04-13T12:15:20.198Z,13.57
2017-04-13T12:16:18.781Z,13.69
2017-04-13T12:17:17.324Z,13.73
2017-04-13T12:18:15.854Z,13.65
2017-04-13T12:19:14.499Z,13.58
2017-04-13T12:20:13.395Z,13.41
2017-04-13T12:21:11.908Z,13.43
2017-04-13T12:22:10.506Z,13.35
2017-04-13T12:23:09.103Z,13.46
2017-04-13T12:24:07.714Z,13.38
2017-04-13T12:25:06.259Z,13.44
2017-04-13T12:26:04.836Z,13.39
2017-04-13T12:27:03.683Z,13.45
2017-04-13T12:28:02.198Z,13.56
2017-04-13T12:29:00.767Z,13.51
2017-04-13T12:29:59.283Z,13.46
2017-04-13T12:30:57.806Z,13.60
2017-04-13T12:31:56.376Z,13.63
2017-04-13T12:32:54.892Z,13.52
2017-04-13T12:33:53.571Z,13.57
2017-04-13T12:34:52.169Z,13.60